Time;durP1;ratioP1;P1;durP2;ratioP2;P2;SDS_P1;SDS_P2;PMS_P1;PMS_P2;Temp;Humidity;BMP_temperature;BMP_pressure;BME280_temperature;BME280_humidity;BME280_pressure;Samples;Min_cycle;Max_cycle;Signal;HPM_P1;HPM_P2
2021/03/14 00:00:32;;;;;;;21.20;11.43;;;;;;;;;;5093927;28;20032;-72
2021/03/14 00:02:59;;;;;;;20.55;11.45;;;;;;;;;;5095648;28;20024;-72
2021/03/14 00:05:27;;;;;;;13.75;8.57;;;;;;;;;;5095534;28;20024;-72
2021/03/14 00:07:53;;;;;;;18.60;9.50;;;;;;;;;;5095106;28;20016;-72
2021/03/14 00:10:19;;;;;;;26.60;12.88;;;;;;;;;;5095456;28;20031;-72
2021/03/14 00:12:46;;;;;;;19.92;11.27;;;;;;;;;;5095578;28;20024;-72
2021/03/14 00:15:12;;;;;;;17.55;9.60;;;;;;;;;;5095951;28;20099;-72
2021/03/14 00:17:38;;;;;;;15.48;9.43;;;;;;;;;;5095308;28;20107;-72
2021/03/14 00:20:06;;;;;;;11.13;6.53;;;;;;;;;;5094876;28;20039;-72
2021/03/14 00:22:32;;;;;;;14.13;8.43;;;;;;;;;;5093878;28;20024;-72
2021/03/14 00:24:59;;;;;;;15.77;9.00;;;;;;;;;;5095173;28;20034;-72
2021/03/14 00:27:25;;;;;;;12.68;6.70;;;;;;;;;;5094767;28;20027;-71
2021/03/14 00:29:51;;;;;;;14.13;7.05;;;;;;;;;;5095452;28;20409;-72
2021/03/14 00:32:17;;;;;;;12.55;6.40;;;;;;;;;;5095039;28;20391;-72
2021/03/14 00:34:44;;;;;;;11.38;6.00;;;;;;;;;;5094813;28;20515;-72
2021/03/14 00:37:10;;;;;;;10.85;5.93;;;;;;;;;;5095018;28;20036;-73
2021/03/14 00:39:36;;;;;;;15.13;7.50;;;;;;;;;;5094810;28;20419;-73
2021/03/14 00:42:03;;;;;;;19.92;13.02;;;;;;;;;;5094478;28;20048;-72
2021/03/14 00:44:29;;;;;;;15.93;8.25;;;;;;;;;;5094814;28;20654;-72
2021/03/14 00:46:55;;;;;;;18.02;11.55;;;;;;;;;;5094767;28;20024;-72
2021/03/14 00:49:22;;;;;;;20.77;10.80;;;;;;;;;;5094381;28;20031;-72
2021/03/14 00:51:48;;;;;;;23.33;12.43;;;;;;;;;;5094665;28;20062;-72
2021/03/14 00:54:15;;;;;;;19.02;11.18;;;;;;;;;;5093499;28;20035;-72
2021/03/14 00:56:41;;;;;;;19.27;11.27;;;;;;;;;;5094385;28;20410;-72
2021/03/14 00:59:07;;;;;;;18.60;10.00;;;;;;;;;;5094298;28;20048;-72
2021/03/14 01:01:33;;;;;;;21.75;10.15;;;;;;;;;;5094529;28;20032;-72
2021/03/14 01:03:59;;;;;;;20.15;11.20;;;;;;;;;;5094143;28;20051;-72
2021/03/14 01:06:26;;;;;;;22.23;13.27;;;;;;;;;;5094372;28;20028;-73
2021/03/14 01:08:52;;;;;;;22.10;12.32;;;;;;;;;;5094445;28;20027;-73
2021/03/14 01:11:18;;;;;;;26.30;15.63;;;;;;;;;;5092664;28;20089;-72
2021/03/14 01:13:45;;;;;;;26.48;15.68;;;;;;;;;;5094527;28;20422;-73
2021/03/14 01:16:11;;;;;;;40.85;24.38;;;;;;;;;;5093909;28;20380;-73
2021/03/14 01:18:37;;;;;;;38.63;23.13;;;;;;;;;;5092844;28;20035;-73
2021/03/14 01:21:04;;;;;;;32.53;17.00;;;;;;;;;;5094118;28;20047;-73
2021/03/14 01:23:30;;;;;;;27.60;16.35;;;;;;;;;;5093727;28;20052;-73
2021/03/14 01:25:56;;;;;;;19.90;10.88;;;;;;;;;;5093993;28;20425;-72
2021/03/14 01:28:22;;;;;;;19.50;10.30;;;;;;;;;;5094017;28;20012;-72
2021/03/14 01:30:49;;;;;;;17.80;10.35;;;;;;;;;;5093661;28;20020;-72
2021/03/14 01:33:15;;;;;;;19.90;11.23;;;;;;;;;;5094110;28;20016;-72
2021/03/14 01:35:41;;;;;;;21.35;10.57;;;;;;;;;;5093785;28;20032;-73
2021/03/14 01:38:08;;;;;;;31.30;14.77;;;;;;;;;;5093288;28;20030;-73
2021/03/14 01:40:34;;;;;;;35.25;14.95;;;;;;;;;;5093746;28;20036;-73
2021/03/14 01:43:00;;;;;;;33.65;14.85;;;;;;;;;;5093719;28;20530;-73
2021/03/14 01:45:26;;;;;;;30.67;15.40;;;;;;;;;;5093256;28;20089;-72
2021/03/14 01:47:53;;;;;;;29.65;16.35;;;;;;;;;;5093510;28;20433;-72
2021/03/14 01:50:24;;;;;;;25.33;13.27;;;;;;;;;;5093693;28;20099;-72
2021/03/14 01:52:51;;;;;;;27.85;12.38;;;;;;;;;;5093463;28;20456;-72
2021/03/14 01:55:18;;;;;;;21.70;12.23;;;;;;;;;;5093485;28;20017;-72
2021/03/14 01:57:45;;;;;;;19.33;9.73;;;;;;;;;;5093133;28;20102;-72
2021/03/14 02:00:13;;;;;;;18.10;9.68;;;;;;;;;;5092934;28;20031;-72
2021/03/14 02:02:40;;;;;;;15.75;8.77;;;;;;;;;;5092050;28;20511;-73
2021/03/14 02:05:07;;;;;;;14.27;6.43;;;;;;;;;;5093325;28;20024;-73
2021/03/14 02:07:34;;;;;;;15.32;7.78;;;;;;;;;;5092258;28;20029;-73
2021/03/14 02:10:01;;;;;;;14.98;7.75;;;;;;;;;;5091975;28;20548;-72
2021/03/14 02:12:29;;;;;;;20.75;8.57;;;;;;;;;;5092909;28;20028;-73
2021/03/14 02:14:58;;;;;;;14.18;8.13;;;;;;;;;;5093137;28;20520;-72
2021/03/14 02:17:25;;;;;;;15.40;7.60;;;;;;;;;;5092956;28;20105;-73
2021/03/14 02:20:12;;;;;;;18.65;8.40;;;;;;;;;;5092599;28;20403;-72
2021/03/14 02:22:42;;;;;;;17.23;8.15;;;;;;;;;;5091734;28;20034;-72
2021/03/14 02:25:11;;;;;;;14.10;7.82;;;;;;;;;;5093000;28;20031;-72
2021/03/14 02:27:39;;;;;;;13.40;6.82;;;;;;;;;;5092496;28;20012;-72
2021/03/14 02:30:06;;;;;;;14.68;7.47;;;;;;;;;;5092996;28;20024;-72
2021/03/14 02:32:34;;;;;;;13.40;6.47;;;;;;;;;;5093008;28;20039;-73
2021/03/14 02:35:02;;;;;;;13.73;8.05;;;;;;;;;;5092391;28;20134;-72
2021/03/14 02:37:28;;;;;;;11.65;6.32;;;;;;;;;;5092829;28;20028;-72
2021/03/14 02:39:55;;;;;;;11.35;6.03;;;;;;;;;;5092659;28;20036;-73
2021/03/14 02:42:23;;;;;;;12.27;6.55;;;;;;;;;;5091105;28;20016;-73
2021/03/14 02:44:51;;;;;;;14.63;7.95;;;;;;;;;;5092754;28;20024;-72
2021/03/14 02:47:27;;;;;;;14.63;6.93;;;;;;;;;;5091313;28;20016;-72
2021/03/14 02:49:53;;;;;;;12.00;6.07;;;;;;;;;;5092245;28;20089;-72
2021/03/14 02:52:21;;;;;;;12.25;6.40;;;;;;;;;;5091506;28;20048;-72
2021/03/14 02:54:48;;;;;;;14.25;7.18;;;;;;;;;;5092274;28;20052;-72
2021/03/14 02:57:14;;;;;;;11.65;7.10;;;;;;;;;;5092574;28;20403;-72
2021/03/14 02:59:41;;;;;;;15.35;8.30;;;;;;;;;;5092249;28;20166;-72
2021/03/14 03:02:08;;;;;;;22.05;10.23;;;;;;;;;;5092103;28;20376;-72
2021/03/14 03:04:35;;;;;;;17.67;8.50;;;;;;;;;;5092377;28;20032;-72
2021/03/14 03:07:01;;;;;;;17.83;9.52;;;;;;;;;;5092457;28;20017;-72
2021/03/14 03:09:27;;;;;;;20.45;9.05;;;;;;;;;;5092041;28;20028;-70
2021/03/14 03:11:54;;;;;;;23.83;7.57;;;;;;;;;;5091348;28;20027;-72
2021/03/14 03:14:23;;;;;;;14.70;7.55;;;;;;;;;;5092387;28;20028;-71
2021/03/14 03:16:51;;;;;;;13.55;7.22;;;;;;;;;;5091888;28;20091;-70
2021/03/14 03:19:18;;;;;;;12.40;7.57;;;;;;;;;;5092182;28;20483;-70
2021/03/14 03:21:44;;;;;;;16.65;8.80;;;;;;;;;;5096559;28;20028;-71
2021/03/14 03:24:11;;;;;;;24.35;11.13;;;;;;;;;;5096068;28;20016;-70
2021/03/14 03:26:46;;;;;;;24.48;14.20;;;;;;;;;;5096336;28;20146;-71
2021/03/14 03:29:13;;;;;;;34.08;18.77;;;;;;;;;;5096285;28;20020;-70
2021/03/14 03:31:39;;;;;;;28.85;14.93;;;;;;;;;;5096119;28;20104;-70
2021/03/14 03:34:06;;;;;;;17.58;8.68;;;;;;;;;;5094902;28;20027;-71
2021/03/14 03:36:32;;;;;;;12.98;7.00;;;;;;;;;;5096229;28;20043;-71
2021/03/14 03:38:59;;;;;;;10.88;7.15;;;;;;;;;;5095754;28;20495;-71
2021/03/14 03:41:28;;;;;;;21.27;13.13;;;;;;;;;;5094793;28;20020;-71
2021/03/14 03:43:55;;;;;;;14.32;9.05;;;;;;;;;;5095706;28;20431;-71
2021/03/14 03:46:21;;;;;;;19.08;11.75;;;;;;;;;;5095959;28;20100;-71
2021/03/14 03:48:49;;;;;;;21.38;11.63;;;;;;;;;;5096352;28;20024;-71
2021/03/14 03:51:17;;;;;;;22.00;12.18;;;;;;;;;;5095572;28;20016;-72
2021/03/14 03:53:44;;;;;;;22.83;11.63;;;;;;;;;;5094668;28;20020;-72
2021/03/14 03:56:10;;;;;;;14.82;8.02;;;;;;;;;;5095786;28;20016;-72
2021/03/14 03:58:37;;;;;;;15.75;8.20;;;;;;;;;;5095370;28;20068;-72
2021/03/14 04:01:04;;;;;;;15.00;7.68;;;;;;;;;;5095653;28;20059;-72
2021/03/14 04:03:36;;;;;;;15.13;8.63;;;;;;;;;;5095590;28;20095;-72
2021/03/14 04:06:02;;;;;;;15.50;8.57;;;;;;;;;;5095279;28;20028;-72
2021/03/14 04:08:30;;;;;;;20.02;9.63;;;;;;;;;;5095511;28;20095;-71
2021/03/14 04:10:56;;;;;;;28.70;14.73;;;;;;;;;;5095468;28;20031;-72
2021/03/14 04:13:23;;;;;;;22.65;11.95;;;;;;;;;;5093981;28;20031;-71
2021/03/14 04:15:49;;;;;;;23.05;12.25;;;;;;;;;;5095421;28;20020;-71
2021/03/14 04:18:18;;;;;;;20.33;11.68;;;;;;;;;;5095299;28;20061;-71
2021/03/14 04:20:44;;;;;;;19.85;10.43;;;;;;;;;;5094774;28;20589;-71
2021/03/14 04:23:15;;;;;;;22.83;12.00;;;;;;;;;;5095271;28;20023;-71
2021/03/14 04:25:42;;;;;;;21.63;11.20;;;;;;;;;;5094030;28;20024;-71
2021/03/14 04:28:09;;;;;;;22.45;9.90;;;;;;;;;;5094782;28;20368;-71
2021/03/14 04:30:36;;;;;;;23.05;11.52;;;;;;;;;;5094583;28;20020;-72
2021/03/14 04:33:03;;;;;;;28.38;16.13;;;;;;;;;;5094969;28;20095;-71
2021/03/14 04:35:29;;;;;;;31.25;16.65;;;;;;;;;;5095095;28;20028;-72
2021/03/14 04:37:56;;;;;;;32.67;16.65;;;;;;;;;;5094893;28;20016;-72
2021/03/14 04:40:22;;;;;;;37.30;18.83;;;;;;;;;;5094509;28;20032;-72
2021/03/14 04:42:50;;;;;;;26.00;14.60;;;;;;;;;;5094871;28;20026;-72
2021/03/14 04:45:17;;;;;;;31.92;18.30;;;;;;;;;;5094838;28;20096;-70
2021/03/14 04:47:45;;;;;;;26.30;15.50;;;;;;;;;;5094413;28;20016;-71
2021/03/14 04:50:12;;;;;;;29.75;14.20;;;;;;;;;;5094864;28;20340;-71
2021/03/14 04:52:39;;;;;;;24.75;13.20;;;;;;;;;;5094834;28;20028;-71
2021/03/14 04:55:06;;;;;;;26.35;12.50;;;;;;;;;;5094263;28;20020;-71
2021/03/14 04:57:33;;;;;;;22.27;12.13;;;;;;;;;;5094524;28;20073;-70
2021/03/14 05:00:01;;;;;;;21.30;11.38;;;;;;;;;;5094492;28;20028;-71
2021/03/14 05:02:28;;;;;;;51.15;27.60;;;;;;;;;;5094112;28;20027;-71
2021/03/14 05:04:56;;;;;;;38.38;19.25;;;;;;;;;;5094491;28;20051;-70
2021/03/14 05:07:22;;;;;;;31.00;15.63;;;;;;;;;;5094357;28;20193;-71
2021/03/14 05:09:49;;;;;;;34.60;20.45;;;;;;;;;;5093935;28;20043;-73
2021/03/14 05:12:15;;;;;;;35.67;21.17;;;;;;;;;;5094544;28;20070;-71
2021/03/14 05:14:42;;;;;;;26.25;16.48;;;;;;;;;;5094514;28;20073;-71
2021/03/14 05:17:08;;;;;;;17.75;9.77;;;;;;;;;;5093902;28;20055;-71
2021/03/14 05:19:35;;;;;;;29.92;16.80;;;;;;;;;;5092773;28;20444;-71
2021/03/14 05:22:02;;;;;;;29.10;17.70;;;;;;;;;;5094139;28;20104;-70
2021/03/14 05:24:30;;;;;;;29.60;15.25;;;;;;;;;;5093663;28;20432;-71
2021/03/14 05:26:57;;;;;;;25.02;13.75;;;;;;;;;;5093973;28;20494;-71
2021/03/14 05:29:24;;;;;;;22.27;12.23;;;;;;;;;;5093565;28;20055;-72
2021/03/14 05:31:50;;;;;;;22.50;12.15;;;;;;;;;;5094025;28;20016;-71
2021/03/14 05:34:17;;;;;;;24.75;12.88;;;;;;;;;;5094121;28;20032;-71
2021/03/14 05:36:43;;;;;;;23.50;12.20;;;;;;;;;;5093442;28;20480;-72
2021/03/14 05:39:10;;;;;;;24.48;14.77;;;;;;;;;;5093745;28;20043;-72
2021/03/14 05:41:37;;;;;;;30.55;16.80;;;;;;;;;;5093742;28;20044;-72
2021/03/14 05:44:04;;;;;;;25.67;14.07;;;;;;;;;;5091174;28;20028;-71
2021/03/14 05:46:31;;;;;;;18.23;10.35;;;;;;;;;;5093949;28;20008;-72
2021/03/14 05:48:57;;;;;;;20.55;11.60;;;;;;;;;;5093499;28;20031;-71
2021/03/14 05:51:23;;;;;;;19.05;10.73;;;;;;;;;;5093177;28;20024;-71
2021/03/14 05:53:50;;;;;;;27.15;16.75;;;;;;;;;;5093722;28;20070;-72
2021/03/14 05:56:17;;;;;;;20.00;12.45;;;;;;;;;;5093606;28;20081;-73
2021/03/14 05:58:45;;;;;;;31.40;17.02;;;;;;;;;;5092830;28;20350;-73
2021/03/14 06:01:14;;;;;;;24.23;13.93;;;;;;;;;;5093361;28;20095;-72
2021/03/14 06:03:40;;;;;;;25.25;13.77;;;;;;;;;;5093333;28;20031;-73
2021/03/14 06:06:07;;;;;;;23.25;13.68;;;;;;;;;;5092981;28;20016;-72
2021/03/14 06:08:34;;;;;;;24.33;15.00;;;;;;;;;;5093281;28;20035;-73
2021/03/14 06:11:01;;;;;;;22.67;15.88;;;;;;;;;;5093227;28;20049;-73
2021/03/14 06:13:28;;;;;;;25.60;14.63;;;;;;;;;;5091568;28;20027;-73
2021/03/14 06:15:54;;;;;;;26.35;13.20;;;;;;;;;;5093196;28;20248;-73
2021/03/14 06:18:20;;;;;;;32.35;15.73;;;;;;;;;;5091707;28;20059;-72
2021/03/14 06:20:47;;;;;;;26.95;13.52;;;;;;;;;;5092624;28;20039;-72
2021/03/14 06:23:17;;;;;;;22.08;12.60;;;;;;;;;;5092936;28;20107;-72
2021/03/14 06:25:44;;;;;;;24.63;13.27;;;;;;;;;;5091265;28;20027;-72
2021/03/14 06:28:11;;;;;;;17.80;9.80;;;;;;;;;;5092972;28;20020;-72
2021/03/14 06:30:37;;;;;;;22.65;12.23;;;;;;;;;;5093116;28;20024;-72
2021/03/14 06:33:05;;;;;;;19.40;11.23;;;;;;;;;;5092565;28;20090;-72
2021/03/14 06:35:51;;;;;;;25.00;13.52;;;;;;;;;;5091502;28;20069;-71
2021/03/14 06:38:18;;;;;;;27.67;16.98;;;;;;;;;;5091210;28;20468;-73
2021/03/14 06:40:45;;;;;;;30.20;15.60;;;;;;;;;;5090944;28;20036;-73
2021/03/14 06:43:13;;;;;;;30.80;18.73;;;;;;;;;;5092752;28;20023;-71
2021/03/14 06:45:40;;;;;;;29.95;16.85;;;;;;;;;;5092608;28;20020;-71
2021/03/14 06:48:07;;;;;;;33.40;18.10;;;;;;;;;;5092280;28;20502;-72
2021/03/14 06:50:34;;;;;;;40.80;21.23;;;;;;;;;;5092833;28;20028;-72
2021/03/14 06:53:20;;;;;;;30.67;17.23;;;;;;;;;;5091309;28;20560;-71
2021/03/14 06:55:47;;;;;;;30.45;15.13;;;;;;;;;;5092247;28;20035;-72
2021/03/14 06:58:31;;;;;;;32.35;17.48;;;;;;;;;;5092226;28;20046;-72
2021/03/14 07:01:11;;;;;;;26.67;16.40;;;;;;;;;;5090858;28;20024;-72
2021/03/14 07:03:38;;;;;;;37.80;21.77;;;;;;;;;;5092534;28;20066;-71
2021/03/14 07:06:14;;;;;;;43.70;24.13;;;;;;;;;;5092394;28;20024;-72
2021/03/14 07:08:40;;;;;;;32.22;17.88;;;;;;;;;;5091018;28;20028;-72
2021/03/14 07:11:07;;;;;;;25.95;15.50;;;;;;;;;;5092572;28;20020;-72
2021/03/14 07:13:34;;;;;;;21.25;13.45;;;;;;;;;;5092364;28;20031;-73
2021/03/14 07:16:00;;;;;;;24.33;14.18;;;;;;;;;;5092072;28;20021;-72
2021/03/14 07:18:27;;;;;;;22.48;12.75;;;;;;;;;;5092354;28;20032;-72
2021/03/14 07:20:53;;;;;;;20.15;12.23;;;;;;;;;;5092356;28;20379;-72
2021/03/14 07:23:31;;;;;;;21.98;12.38;;;;;;;;;;5091884;28;20024;-72
2021/03/14 07:25:58;;;;;;;31.25;17.90;;;;;;;;;;5092173;28;20103;-70
2021/03/14 07:28:25;;;;;;;25.67;14.88;;;;;;;;;;5092148;28;20294;-71
2021/03/14 07:30:51;;;;;;;74.97;41.72;;;;;;;;;;5092028;28;20021;-72
2021/03/14 07:33:18;;;;;;;26.83;13.25;;;;;;;;;;5091009;28;20044;-72
2021/03/14 07:35:48;;;;;;;24.75;12.77;;;;;;;;;;5092171;28;20036;-72
2021/03/14 07:38:14;;;;;;;22.45;13.57;;;;;;;;;;5091633;28;20040;-72
2021/03/14 07:40:41;;;;;;;24.75;13.32;;;;;;;;;;5092153;28;20060;-73
2021/03/14 07:43:07;;;;;;;23.15;15.52;;;;;;;;;;5091677;28;20024;-72
2021/03/14 07:45:33;;;;;;;20.77;14.20;;;;;;;;;;5090679;28;20028;-72
2021/03/14 07:48:03;;;;;;;22.40;12.32;;;;;;;;;;5092110;28;20032;-72
2021/03/14 07:50:47;;;;;;;21.58;12.40;;;;;;;;;;5091818;28;20428;-71
2021/03/14 07:53:17;;;;;;;22.42;13.77;;;;;;;;;;5090875;28;20037;-71
2021/03/14 07:55:46;;;;;;;24.00;14.27;;;;;;;;;;5091948;28;20054;-72
2021/03/14 07:58:13;;;;;;;16.58;10.35;;;;;;;;;;5091305;28;20052;-72
2021/03/14 08:00:40;;;;;;;15.25;9.98;;;;;;;;;;5091964;28;20024;-72
2021/03/14 08:03:11;;;;;;;19.40;12.32;;;;;;;;;;5090693;28;20020;-71
2021/03/14 08:05:37;;;;;;;17.33;10.80;;;;;;;;;;5091875;28;20042;-71
2021/03/14 08:08:04;;;;;;;15.48;9.43;;;;;;;;;;5095657;28;20017;-71
2021/03/14 08:10:35;;;;;;;15.85;9.43;;;;;;;;;;5095848;28;20021;-71
2021/03/14 08:15:11;;;;;;;18.42;11.48;;;;;;;;;;5069657;28;20907;-71
2021/03/14 08:18:44;;;;;;;16.13;10.50;;;;;;;;;;5069313;28;20441;-71
2021/03/14 08:21:23;;;;;;;28.08;17.08;;;;;;;;;;5069716;28;20032;-71
2021/03/14 08:23:53;;;;;;;19.85;12.48;;;;;;;;;;5069628;28;20017;-72
2021/03/14 08:26:22;;;;;;;30.55;18.63;;;;;;;;;;5068086;28;20116;-72
2021/03/14 08:28:56;;;;;;;28.27;17.30;;;;;;;;;;5069519;28;20075;-72
2021/03/14 08:31:37;;;;;;;24.17;15.95;;;;;;;;;;5069619;28;20493;-72
2021/03/14 08:34:03;;;;;;;27.98;15.13;;;;;;;;;;5069355;28;20060;-72
2021/03/14 08:38:30;;;;;;;21.63;13.20;;;;;;;;;;5069713;28;20449;-72
2021/03/14 08:41:15;;;;;;;21.92;13.15;;;;;;;;;;5069445;28;20040;-73
2021/03/14 08:43:42;;;;;;;23.45;15.70;;;;;;;;;;5069848;28;20047;-72
2021/03/14 08:46:08;;;;;;;19.33;12.68;;;;;;;;;;5069764;28;20027;-72
2021/03/14 08:48:34;;;;;;;18.30;11.15;;;;;;;;;;5069201;28;20142;-73
2021/03/14 08:51:00;;;;;;;24.80;15.20;;;;;;;;;;5069651;28;20017;-73
2021/03/14 08:53:27;;;;;;;20.10;12.80;;;;;;;;;;5069245;28;20358;-72
2021/03/14 08:58:12;;;;;;;16.60;11.13;;;;;;;;;;5110246;27;20796;-73
2021/03/14 09:00:38;;;;;;;15.15;9.10;;;;;;;;;;5109758;28;20103;-72
2021/03/14 09:04:38;;;;;;;18.63;12.40;;;;;;;;;;5069641;28;20404;-73
2021/03/14 09:07:12;;;;;;;19.90;12.85;;;;;;;;;;5068395;28;20035;-72
2021/03/14 09:09:39;;;;;;;19.02;11.45;;;;;;;;;;5069424;28;20099;-73
2021/03/14 09:13:01;;;;;;;33.30;17.52;;;;;;;;;;5110414;27;20385;-73
2021/03/14 09:15:28;;;;;;;21.52;12.57;;;;;;;;;;5110412;28;20030;-73
2021/03/14 09:17:58;;;;;;;21.90;12.48;;;;;;;;;;5110196;28;20057;-73
2021/03/14 09:20:24;;;;;;;21.88;13.27;;;;;;;;;;5110361;28;20676;-72
2021/03/14 09:22:51;;;;;;;22.92;13.23;;;;;;;;;;5109731;28;20061;-72
2021/03/14 09:26:28;;;;;;;17.83;11.40;;;;;;;;;;5110205;27;20117;-72
2021/03/14 09:28:54;;;;;;;21.55;12.32;;;;;;;;;;5088009;28;20135;-73
2021/03/14 09:31:20;;;;;;;17.67;10.15;;;;;;;;;;5089795;28;20025;-72
2021/03/14 09:33:47;;;;;;;15.48;10.20;;;;;;;;;;5090056;28;20032;-73
2021/03/14 09:36:14;;;;;;;18.98;12.57;;;;;;;;;;5089342;28;20079;-75
2021/03/14 09:38:40;;;;;;;17.92;11.68;;;;;;;;;;5089812;28;20086;-74
2021/03/14 09:41:06;;;;;;;16.50;9.45;;;;;;;;;;5089675;28;20380;-74
2021/03/14 09:44:12;;;;;;;15.57;9.52;;;;;;;;;;5109939;27;20385;-72
2021/03/14 09:46:39;;;;;;;14.50;8.82;;;;;;;;;;5110200;28;20073;-72
2021/03/14 09:49:12;;;;;;;14.13;9.13;;;;;;;;;;5110171;28;20034;-73
2021/03/14 09:51:38;;;;;;;18.98;9.63;;;;;;;;;;5109822;28;20034;-73
2021/03/14 09:54:09;;;;;;;17.60;11.07;;;;;;;;;;5110240;28;20533;-73
2021/03/14 09:56:35;;;;;;;25.10;11.07;;;;;;;;;;5109644;28;20077;-73
2021/03/14 09:59:03;;;;;;;17.27;10.95;;;;;;;;;;5109811;28;20024;-73
2021/03/14 10:01:29;;;;;;;13.27;9.07;;;;;;;;;;5108573;28;20384;-73
2021/03/14 10:03:59;;;;;;;20.10;8.75;;;;;;;;;;5109488;28;20499;-73
2021/03/14 10:06:25;;;;;;;16.92;9.27;;;;;;;;;;5109608;28;20027;-73
2021/03/14 10:08:51;;;;;;;14.43;7.93;;;;;;;;;;5109891;28;20129;-73
2021/03/14 10:11:40;;;;;;;15.18;8.68;;;;;;;;;;5110048;27;20377;-73
2021/03/14 10:14:06;;;;;;;16.48;8.85;;;;;;;;;;5110411;28;20392;-73
2021/03/14 10:16:33;;;;;;;11.75;7.63;;;;;;;;;;5108894;28;20480;-73
2021/03/14 10:18:59;;;;;;;13.25;8.43;;;;;;;;;;5109739;28;20388;-73
2021/03/14 10:21:27;;;;;;;13.90;8.40;;;;;;;;;;5110112;28;20024;-74
2021/03/14 10:24:13;;;;;;;7.97;4.85;;;;;;;;;;5110075;28;20027;-73
2021/03/14 10:26:55;;;;;;;16.73;9.77;;;;;;;;;;5109492;28;20591;-72
2021/03/14 10:29:23;;;;;;;13.20;7.55;;;;;;;;;;5109853;28;20044;-74
2021/03/14 10:31:49;;;;;;;25.15;12.98;;;;;;;;;;5109796;28;20055;-73
2021/03/14 10:34:22;;;;;;;23.73;13.27;;;;;;;;;;5110013;28;20091;-73
2021/03/14 10:36:49;;;;;;;10.25;6.03;;;;;;;;;;5109857;28;20028;-73
2021/03/14 10:39:22;;;;;;;7.43;3.53;;;;;;;;;;5109416;28;20024;-73
2021/03/14 10:41:49;;;;;;;15.05;6.07;;;;;;;;;;5109856;28;20077;-72
2021/03/14 10:44:18;;;;;;;10.77;6.57;;;;;;;;;;5109701;28;20020;-73
2021/03/14 10:46:48;;;;;;;15.02;9.60;;;;;;;;;;5107988;28;20020;-72
2021/03/14 10:49:24;;;;;;;14.82;6.72;;;;;;;;;;5109785;28;20016;-71
2021/03/14 10:51:51;;;;;;;14.13;6.28;;;;;;;;;;5109794;28;20024;-72
2021/03/14 10:54:18;;;;;;;9.32;5.32;;;;;;;;;;5109294;28;20043;-71
2021/03/14 10:56:46;;;;;;;10.05;4.63;;;;;;;;;;5109483;28;20027;-72
2021/03/14 10:59:28;;;;;;;8.68;4.82;;;;;;;;;;5109884;28;20020;-73
2021/03/14 11:01:59;;;;;;;10.40;4.53;;;;;;;;;;5108998;28;20024;-75
2021/03/14 11:05:51;;;;;;;7.68;4.57;;;;;;;;;;5110242;27;20749;-74
2021/03/14 11:08:18;;;;;;;8.73;5.55;;;;;;;;;;5110040;28;20055;-72
2021/03/14 11:11:01;;;;;;;7.13;4.13;;;;;;;;;;5110308;28;20073;-73
2021/03/14 11:13:32;;;;;;;6.72;4.25;;;;;;;;;;5110428;28;20019;-74
2021/03/14 11:17:03;;;;;;;10.18;5.40;;;;;;;;;;5110130;27;20147;-73
2021/03/14 11:19:29;;;;;;;16.15;5.60;;;;;;;;;;5110339;28;20032;-73
2021/03/14 11:21:55;;;;;;;10.10;4.78;;;;;;;;;;5109897;28;20016;-73
2021/03/14 11:24:21;;;;;;;8.63;4.60;;;;;;;;;;5110035;28;20055;-72
2021/03/14 11:26:48;;;;;;;8.45;4.20;;;;;;;;;;5110044;28;20023;-72
2021/03/14 11:29:59;;;;;;;6.18;3.38;;;;;;;;;;5109972;27;20393;-74
2021/03/14 11:32:26;;;;;;;8.68;3.75;;;;;;;;;;5109123;28;20028;-74
2021/03/14 11:34:52;;;;;;;7.53;3.33;;;;;;;;;;5108968;28;20050;-74
2021/03/14 11:37:18;;;;;;;7.82;3.85;;;;;;;;;;5108565;28;20024;-74
2021/03/14 11:39:44;;;;;;;7.55;3.45;;;;;;;;;;5108908;28;20023;-75
2021/03/14 11:42:11;;;;;;;5.82;3.13;;;;;;;;;;5109714;28;20024;-74
2021/03/14 11:46:53;;;;;;;6.22;3.20;;;;;;;;;;5069611;28;20429;-72
2021/03/14 11:49:19;;;;;;;6.85;3.72;;;;;;;;;;5069303;28;20029;-72
2021/03/14 11:51:45;;;;;;;7.45;3.85;;;;;;;;;;5069715;28;20025;-72
2021/03/14 11:54:16;;;;;;;7.30;3.65;;;;;;;;;;5069700;28;20043;-73
2021/03/14 11:57:27;;;;;;;7.15;3.83;;;;;;;;;;5109829;27;20442;-72
2021/03/14 11:59:56;;;;;;;5.22;2.63;;;;;;;;;;5110239;28;20480;-73
2021/03/14 12:02:23;;;;;;;6.63;2.95;;;;;;;;;;5110208;28;20055;-73
2021/03/14 12:04:49;;;;;;;6.45;2.70;;;;;;;;;;5109743;28;20361;-72
2021/03/14 12:07:15;;;;;;;4.80;2.25;;;;;;;;;;5110018;28;20057;-74
2021/03/14 12:09:41;;;;;;;4.32;2.65;;;;;;;;;;5110082;28;20514;-73
2021/03/14 12:12:07;;;;;;;7.00;3.30;;;;;;;;;;5109835;28;20055;-72
2021/03/14 12:14:34;;;;;;;6.72;2.67;;;;;;;;;;5108812;28;20113;-73
2021/03/14 12:17:00;;;;;;;12.60;3.40;;;;;;;;;;5109907;28;20427;-73
2021/03/14 12:19:27;;;;;;;4.68;2.33;;;;;;;;;;5108204;28;20084;-72
2021/03/14 12:21:53;;;;;;;11.30;6.05;;;;;;;;;;5109822;28;20020;-72
2021/03/14 12:24:19;;;;;;;5.50;3.58;;;;;;;;;;5108130;28;20042;-72
2021/03/14 12:26:45;;;;;;;6.97;3.28;;;;;;;;;;5109661;28;20024;-73
2021/03/14 12:29:12;;;;;;;11.20;5.07;;;;;;;;;;5109645;28;20482;-72
2021/03/14 12:31:38;;;;;;;7.05;3.60;;;;;;;;;;5108038;28;20055;-73
2021/03/14 12:34:04;;;;;;;8.38;3.80;;;;;;;;;;5109869;28;20024;-73
2021/03/14 12:36:30;;;;;;;5.13;2.80;;;;;;;;;;5109265;28;20038;-73
2021/03/14 12:38:57;;;;;;;10.02;5.82;;;;;;;;;;5107726;28;20134;-74
2021/03/14 12:41:23;;;;;;;6.50;3.60;;;;;;;;;;5108114;28;20031;-73
2021/03/14 12:43:49;;;;;;;7.20;3.97;;;;;;;;;;5109513;28;20024;-73
2021/03/14 12:46:15;;;;;;;8.13;3.95;;;;;;;;;;5108986;28;20043;-73
2021/03/14 12:48:41;;;;;;;7.25;3.38;;;;;;;;;;5108128;28;20119;-72
2021/03/14 12:51:08;;;;;;;3.80;2.30;;;;;;;;;;5109601;28;20103;-73
2021/03/14 12:53:34;;;;;;;6.68;3.58;;;;;;;;;;5108948;28;20099;-72
2021/03/14 12:56:00;;;;;;;6.40;3.63;;;;;;;;;;5108998;28;20048;-73
2021/03/14 12:58:26;;;;;;;8.77;4.47;;;;;;;;;;5108982;28;20512;-73
2021/03/14 13:00:52;;;;;;;8.77;6.45;;;;;;;;;;5108797;28;20110;-74
2021/03/14 13:03:19;;;;;;;6.30;3.40;;;;;;;;;;5108956;28;20051;-74
2021/03/14 13:05:45;;;;;;;5.05;2.70;;;;;;;;;;5108982;28;20085;-72
2021/03/14 13:08:11;;;;;;;5.95;3.33;;;;;;;;;;5098411;28;20381;-72
2021/03/14 13:10:37;;;;;;;5.95;2.85;;;;;;;;;;5095278;28;20028;-73
2021/03/14 13:13:04;;;;;;;5.93;2.78;;;;;;;;;;5095445;28;20016;-72
2021/03/14 13:15:32;;;;;;;7.32;4.18;;;;;;;;;;5093729;28;20028;-72
2021/03/14 13:17:58;;;;;;;15.30;3.83;;;;;;;;;;5095175;28;20146;-72
2021/03/14 13:20:25;;;;;;;4.53;2.65;;;;;;;;;;5095108;28;20027;-73
2021/03/14 13:22:51;;;;;;;3.83;1.85;;;;;;;;;;5094698;28;20422;-73
2021/03/14 13:25:17;;;;;;;5.32;2.70;;;;;;;;;;5095029;28;20020;-73
2021/03/14 13:27:47;;;;;;;6.30;3.00;;;;;;;;;;5094615;28;20028;-73
2021/03/14 13:30:14;;;;;;;4.03;1.83;;;;;;;;;;5094925;28;20017;-73
2021/03/14 13:32:41;;;;;;;3.63;1.55;;;;;;;;;;5094945;28;20047;-73
2021/03/14 13:35:07;;;;;;;4.57;2.85;;;;;;;;;;5094491;28;20028;-73
2021/03/14 13:37:33;;;;;;;5.10;2.40;;;;;;;;;;5094835;28;20024;-74
2021/03/14 13:39:59;;;;;;;7.45;2.50;;;;;;;;;;5094712;28;20085;-74
2021/03/14 13:42:26;;;;;;;3.92;1.73;;;;;;;;;;5092994;28;20536;-73
2021/03/14 13:44:52;;;;;;;5.53;1.85;;;;;;;;;;5094784;28;20096;-75
2021/03/14 13:47:19;;;;;;;6.30;2.97;;;;;;;;;;5094689;28;20099;-73
2021/03/14 13:49:45;;;;;;;8.82;3.63;;;;;;;;;;5094233;28;20099;-73
2021/03/14 13:52:11;;;;;;;6.70;3.35;;;;;;;;;;5094560;28;20028;-73
2021/03/14 13:54:38;;;;;;;4.68;2.45;;;;;;;;;;5094450;28;20427;-74
2021/03/14 13:57:04;;;;;;;4.72;2.30;;;;;;;;;;5093891;28;20071;-72
2021/03/14 13:59:30;;;;;;;7.75;3.90;;;;;;;;;;5094308;28;20103;-73
2021/03/14 14:01:57;;;;;;;4.10;2.00;;;;;;;;;;5094407;28;20504;-72
2021/03/14 14:04:23;;;;;;;6.88;2.80;;;;;;;;;;5093869;28;20016;-73
2021/03/14 14:06:49;;;;;;;6.30;2.53;;;;;;;;;;5094342;28;20092;-73
2021/03/14 14:09:15;;;;;;;9.65;2.75;;;;;;;;;;5092945;28;20502;-73
2021/03/14 14:11:42;;;;;;;7.60;4.65;;;;;;;;;;5093814;28;20024;-73
2021/03/14 14:14:08;;;;;;;11.88;4.75;;;;;;;;;;5093023;28;20375;-74
2021/03/14 14:16:36;;;;;;;7.50;3.72;;;;;;;;;;5094164;28;20561;-73
2021/03/14 14:19:02;;;;;;;7.45;4.00;;;;;;;;;;5092561;28;20047;-73
2021/03/14 14:21:28;;;;;;;12.13;5.13;;;;;;;;;;5092669;28;20024;-73
2021/03/14 14:23:55;;;;;;;3.42;1.75;;;;;;;;;;5093537;28;20020;-73
2021/03/14 14:26:21;;;;;;;5.47;3.00;;;;;;;;;;5093805;28;20024;-73
2021/03/14 14:28:47;;;;;;;6.10;2.75;;;;;;;;;;5093890;28;20024;-73
2021/03/14 14:31:14;;;;;;;7.55;4.03;;;;;;;;;;5093319;28;20025;-72
2021/03/14 14:33:40;;;;;;;9.95;5.13;;;;;;;;;;5093979;28;20445;-72
2021/03/14 14:36:06;;;;;;;9.45;4.72;;;;;;;;;;5093617;28;20067;-72
2021/03/14 14:38:33;;;;;;;8.80;4.80;;;;;;;;;;5093232;28;20507;-72
2021/03/14 14:40:59;;;;;;;7.82;2.70;;;;;;;;;;5093661;28;20078;-72
2021/03/14 14:43:25;;;;;;;14.85;8.23;;;;;;;;;;5093519;28;20484;-72
2021/03/14 14:45:51;;;;;;;6.68;3.50;;;;;;;;;;5093213;28;20031;-72